createdAt,value
2019-01-25T00:00:09.172Z,997.28
2019-01-25T00:01:09.183Z,997.3
2019-01-25T00:02:09.202Z,997.3
2019-01-25T00:03:10.194Z,997.33
2019-01-25T00:04:09.229Z,997.37
2019-01-25T00:05:09.239Z,997.36
2019-01-25T00:06:09.257Z,997.35
2019-01-25T00:07:09.266Z,997.39
2019-01-25T00:08:09.279Z,997.34
2019-01-25T00:09:09.299Z,997.34
2019-01-25T00:10:09.316Z,997.36
2019-01-25T00:11:09.321Z,997.34
2019-01-25T00:12:09.334Z,997.38
2019-01-25T00:13:09.348Z,997.39
2019-01-25T00:14:09.364Z,997.39
2019-01-25T00:15:09.379Z,997.41
2019-01-25T00:16:09.390Z,997.38
2019-01-25T00:17:09.493Z,997.43
2019-01-25T00:18:09.421Z,997.44
2019-01-25T00:19:09.437Z,997.44
2019-01-25T00:20:09.519Z,997.44
2019-01-25T00:21:09.457Z,997.44
2019-01-25T00:22:09.773Z,997.47
2019-01-25T00:23:09.483Z,997.49
2019-01-25T00:24:09.497Z,997.45
2019-01-25T00:25:09.516Z,997.48
2019-01-25T00:26:09.525Z,997.47
2019-01-25T00:27:09.539Z,997.47
2019-01-25T00:28:09.562Z,997.45
2019-01-25T00:29:09.567Z,997.45
2019-01-25T00:30:09.579Z,997.47
2019-01-25T00:31:09.596Z,997.45
2019-01-25T00:32:09.608Z,997.46
2019-01-25T00:33:09.626Z,997.48
2019-01-25T00:34:09.640Z,997.48
2019-01-25T00:35:09.649Z,997.48
2019-01-25T00:36:09.748Z,997.52
2019-01-25T00:37:09.675Z,997.52
2019-01-25T00:38:09.693Z,997.54
2019-01-25T00:39:09.707Z,997.55
2019-01-25T00:40:09.717Z,997.52
2019-01-25T00:41:09.731Z,997.51
2019-01-25T00:42:09.744Z,997.54
2019-01-25T00:43:09.757Z,997.53
2019-01-25T00:44:09.770Z,997.55
2019-01-25T00:45:09.788Z,997.54
2019-01-25T00:46:09.805Z,997.51
2019-01-25T00:47:09.812Z,997.42
2019-01-25T00:48:09.824Z,997.47
2019-01-25T00:49:09.839Z,997.44
2019-01-25T00:50:09.856Z,997.44
2019-01-25T00:51:09.868Z,997.4
2019-01-25T00:52:09.879Z,997.42
2019-01-25T00:53:09.893Z,997.48
2019-01-25T00:54:09.912Z,997.42
2019-01-25T00:55:09.920Z,997.47
2019-01-25T00:56:09.934Z,997.5
2019-01-25T00:57:09.946Z,997.48
2019-01-25T00:58:09.960Z,997.51
2019-01-25T00:59:09.978Z,997.49
2019-01-25T01:00:09.989Z,997.48
2019-01-25T01:01:10.003Z,997.47
2019-01-25T01:02:10.016Z,997.49
2019-01-25T01:03:10.027Z,997.44
2019-01-25T01:04:10.045Z,997.46
2019-01-25T01:05:10.055Z,997.47
2019-01-25T01:06:10.070Z,997.5
2019-01-25T01:07:10.083Z,997.51
2019-01-25T01:08:10.098Z,997.51
2019-01-25T01:09:10.110Z,997.48
2019-01-25T01:10:14.082Z,997.51
2019-01-25T01:11:10.141Z,997.52
2019-01-25T01:12:10.150Z,997.48
2019-01-25T01:13:10.165Z,997.52
2019-01-25T01:14:10.176Z,997.51
2019-01-25T01:15:10.192Z,997.5
2019-01-25T01:16:11.485Z,997.52
2019-01-25T01:17:10.223Z,997.48
2019-01-25T01:18:10.234Z,997.51
2019-01-25T01:19:10.247Z,997.53
2019-01-25T01:20:10.260Z,997.52
2019-01-25T01:21:10.274Z,997.56
2019-01-25T01:22:10.287Z,997.57
2019-01-25T01:23:10.304Z,997.51
2019-01-25T01:24:10.314Z,997.56
2019-01-25T01:25:10.328Z,997.54
2019-01-25T01:26:10.349Z,997.57
2019-01-25T01:27:10.355Z,997.52
2019-01-25T01:28:10.369Z,997.55
2019-01-25T01:29:10.384Z,997.58
2019-01-25T01:30:10.400Z,997.54
2019-01-25T01:31:10.413Z,997.52
2019-01-25T01:32:10.423Z,997.51
2019-01-25T01:33:10.438Z,997.53
2019-01-25T01:34:10.449Z,997.53
2019-01-25T01:35:10.468Z,997.54
2019-01-25T01:36:10.477Z,997.52
2019-01-25T01:37:10.491Z,997.52
2019-01-25T01:38:10.509Z,997.56
2019-01-25T01:39:10.517Z,997.55
2019-01-25T01:40:10.538Z,997.52
2019-01-25T01:41:10.551Z,997.51
2019-01-25T01:42:10.560Z,997.53
2019-01-25T01:43:10.576Z,997.48
2019-01-25T01:44:10.586Z,997.49
2019-01-25T01:45:10.599Z,997.47
2019-01-25T01:46:10.615Z,997.5
2019-01-25T01:47:10.631Z,997.45
2019-01-25T01:48:10.642Z,997.45
2019-01-25T01:49:10.654Z,997.43
2019-01-25T01:50:10.667Z,997.44
2019-01-25T01:51:10.682Z,997.42
2019-01-25T01:52:10.695Z,997.4
2019-01-25T01:53:10.708Z,997.39
2019-01-25T01:54:10.722Z,997.43
2019-01-25T01:55:10.736Z,997.44
2019-01-25T01:56:10.749Z,997.42
2019-01-25T01:57:10.765Z,997.39
2019-01-25T01:58:10.777Z,997.39
2019-01-25T01:59:10.790Z,997.38
2019-01-25T02:00:10.804Z,997.39
2019-01-25T02:01:10.817Z,997.39
2019-01-25T02:02:10.831Z,997.35
2019-01-25T02:03:10.849Z,997.38
2019-01-25T02:04:10.859Z,997.41
2019-01-25T02:05:10.871Z,997.45
2019-01-25T02:06:10.884Z,997.49
2019-01-25T02:07:10.900Z,997.48
2019-01-25T02:08:10.915Z,997.49
2019-01-25T02:09:10.936Z,997.52
2019-01-25T02:10:10.940Z,997.55
2019-01-25T02:11:10.959Z,997.55
2019-01-25T02:12:10.968Z,997.54
2019-01-25T02:13:11.014Z,997.52
2019-01-25T02:14:11.003Z,997.49
2019-01-25T02:15:11.011Z,997.51
2019-01-25T02:16:11.023Z,997.51
2019-01-25T02:17:11.036Z,997.51
2019-01-25T02:18:11.054Z,997.5
2019-01-25T02:19:11.063Z,997.46
2019-01-25T02:20:11.079Z,997.51
2019-01-25T02:21:11.092Z,997.49
2019-01-25T02:22:11.106Z,997.51
2019-01-25T02:23:11.117Z,997.52
2019-01-25T02:24:11.135Z,997.55
2019-01-25T02:25:11.153Z,997.52
2019-01-25T02:26:11.163Z,997.53
2019-01-25T02:27:11.172Z,997.53
2019-01-25T02:28:11.186Z,997.54
2019-01-25T02:29:11.200Z,997.54
2019-01-25T02:30:11.212Z,997.56
2019-01-25T02:31:11.237Z,997.6
2019-01-25T02:32:11.245Z,997.56
2019-01-25T02:33:11.258Z,997.52
2019-01-25T02:34:11.266Z,997.52
2019-01-25T02:35:11.289Z,997.52
2019-01-25T02:36:11.294Z,997.51
2019-01-25T02:37:11.308Z,997.49
2019-01-25T02:38:11.323Z,997.5
2019-01-25T02:39:11.345Z,997.49
2019-01-25T02:40:11.355Z,997.5
2019-01-25T02:41:11.368Z,997.46
2019-01-25T02:42:11.381Z,997.44
2019-01-25T02:43:11.390Z,997.45
2019-01-25T02:44:11.442Z,997.45
2019-01-25T02:45:11.417Z,997.44
2019-01-25T02:46:11.431Z,997.41
2019-01-25T02:47:11.452Z,997.41
2019-01-25T02:48:11.459Z,997.4
2019-01-25T02:49:11.473Z,997.42
2019-01-25T02:50:11.484Z,997.43
2019-01-25T02:51:11.501Z,997.42
2019-01-25T02:52:11.521Z,997.43
2019-01-25T02:53:11.525Z,997.44
2019-01-25T02:54:11.540Z,997.48
2019-01-25T02:55:11.554Z,997.48
2019-01-25T02:56:11.566Z,997.47
2019-01-25T02:57:11.582Z,997.51
2019-01-25T02:58:11.594Z,997.52
2019-01-25T02:59:11.608Z,997.55
2019-01-25T03:00:11.621Z,997.5
2019-01-25T03:01:11.636Z,997.51
2019-01-25T03:02:11.649Z,997.54
2019-01-25T03:03:11.669Z,997.55
2019-01-25T03:04:11.676Z,997.49
2019-01-25T03:05:11.690Z,997.54
2019-01-25T03:06:11.704Z,997.52
2019-01-25T03:07:11.722Z,997.53
2019-01-25T03:08:11.736Z,997.55
2019-01-25T03:09:11.746Z,997.58
2019-01-25T03:10:11.763Z,997.56
2019-01-25T03:11:11.775Z,997.55
2019-01-25T03:12:11.790Z,997.5
2019-01-25T03:13:11.804Z,997.53
2019-01-25T03:14:11.812Z,997.55
2019-01-25T03:15:11.826Z,997.5
2019-01-25T03:16:11.840Z,997.46
2019-01-25T03:17:11.863Z,997.52
2019-01-25T03:18:11.872Z,997.5
2019-01-25T03:19:11.882Z,997.5
2019-01-25T03:20:11.895Z,997.47
2019-01-25T03:21:11.909Z,997.46
2019-01-25T03:22:11.922Z,997.45
2019-01-25T03:23:11.938Z,997.42
2019-01-25T03:24:11.956Z,997.4
2019-01-25T03:25:11.965Z,997.43
2019-01-25T03:26:11.979Z,997.4
2019-01-25T03:27:11.994Z,997.41
2019-01-25T03:28:12.002Z,997.4
2019-01-25T03:29:12.023Z,997.42
2019-01-25T03:30:12.035Z,997.42
2019-01-25T03:31:12.050Z,997.44
2019-01-25T03:32:12.060Z,997.47
2019-01-25T03:33:12.079Z,997.45
2019-01-25T03:34:12.090Z,997.49
2019-01-25T03:35:12.098Z,997.44
2019-01-25T03:36:12.111Z,997.46
2019-01-25T03:37:12.127Z,997.48
2019-01-25T03:38:12.138Z,997.47
2019-01-25T03:39:12.154Z,997.47
2019-01-25T03:40:12.167Z,997.52
2019-01-25T03:41:12.181Z,997.51
2019-01-25T03:42:12.193Z,997.45
2019-01-25T03:43:12.212Z,997.45
2019-01-25T03:44:12.224Z,997.44
2019-01-25T03:45:12.236Z,997.45
2019-01-25T03:46:12.254Z,997.47
2019-01-25T03:47:12.263Z,997.42
2019-01-25T03:48:12.281Z,997.44
2019-01-25T03:49:12.469Z,997.4
2019-01-25T03:50:12.303Z,997.42
2019-01-25T03:51:12.326Z,997.39
2019-01-25T03:52:12.336Z,997.42
2019-01-25T03:53:12.394Z,997.47
2019-01-25T03:54:12.357Z,997.46
2019-01-25T03:55:12.372Z,997.52
2019-01-25T03:56:12.390Z,997.49
2019-01-25T03:57:12.407Z,997.47
2019-01-25T03:58:12.414Z,997.47
2019-01-25T03:59:12.425Z,997.5
2019-01-25T04:00:12.440Z,997.5
2019-01-25T04:01:12.453Z,997.56
2019-01-25T04:02:12.466Z,997.53
2019-01-25T04:03:12.480Z,997.49
2019-01-25T04:04:12.496Z,997.46
2019-01-25T04:05:12.507Z,997.46
2019-01-25T04:06:12.527Z,997.48
2019-01-25T04:07:12.535Z,997.45
2019-01-25T04:08:12.552Z,997.45
2019-01-25T04:09:12.567Z,997.42
2019-01-25T04:10:12.576Z,997.39
2019-01-25T04:11:12.590Z,997.43
2019-01-25T04:12:12.610Z,997.39
2019-01-25T04:13:12.623Z,997.38
2019-01-25T04:14:12.678Z,997.39
2019-01-25T04:15:12.643Z,997.41
2019-01-25T04:16:12.665Z,997.42
2019-01-25T04:17:12.671Z,997.42
2019-01-25T04:18:12.689Z,997.46
2019-01-25T04:19:12.700Z,997.47
2019-01-25T04:20:12.710Z,997.5
2019-01-25T04:21:12.725Z,997.48
2019-01-25T04:22:12.739Z,997.57
2019-01-25T04:23:12.752Z,997.51
2019-01-25T04:24:12.771Z,997.6
2019-01-25T04:25:12.783Z,997.55
2019-01-25T04:26:12.869Z,997.58
2019-01-25T04:27:12.810Z,997.58
2019-01-25T04:28:12.823Z,997.63
2019-01-25T04:29:12.834Z,997.65
2019-01-25T04:30:12.846Z,997.69
2019-01-25T04:31:12.861Z,997.6
2019-01-25T04:32:12.877Z,997.64
2019-01-25T04:33:12.888Z,997.6
2019-01-25T04:34:12.917Z,997.6
2019-01-25T04:35:12.917Z,997.63
2019-01-25T04:36:12.929Z,997.63
2019-01-25T04:37:12.943Z,997.67
2019-01-25T04:38:12.959Z,997.69
2019-01-25T04:39:12.967Z,997.67
2019-01-25T04:40:12.983Z,997.68
2019-01-25T04:41:13.000Z,997.66
2019-01-25T04:42:13.010Z,997.63
2019-01-25T04:43:13.024Z,997.65
2019-01-25T04:44:13.038Z,997.66
2019-01-25T04:45:13.057Z,997.66
2019-01-25T04:46:13.069Z,997.61
2019-01-25T04:47:13.078Z,997.6
2019-01-25T04:48:13.093Z,997.59
2019-01-25T04:49:13.112Z,997.54
2019-01-25T04:50:13.124Z,997.53
2019-01-25T04:51:13.132Z,997.56
2019-01-25T04:52:13.147Z,997.56
2019-01-25T04:53:13.164Z,997.54
2019-01-25T04:54:13.173Z,997.53
2019-01-25T04:55:13.187Z,997.54
2019-01-25T04:56:13.201Z,997.54
2019-01-25T04:57:13.214Z,997.6
2019-01-25T04:58:13.229Z,997.6
2019-01-25T04:59:13.242Z,997.58
2019-01-25T05:00:13.255Z,997.61
2019-01-25T05:01:13.270Z,997.59
2019-01-25T05:02:13.283Z,997.63
2019-01-25T05:03:13.296Z,997.55
2019-01-25T05:04:13.308Z,997.58
2019-01-25T05:05:13.323Z,997.56
2019-01-25T05:06:13.338Z,997.52
2019-01-25T05:07:13.354Z,997.5
2019-01-25T05:08:13.364Z,997.48
2019-01-25T05:09:13.381Z,997.5
2019-01-25T05:10:13.395Z,997.51
2019-01-25T05:11:19.689Z,997.55
2019-01-25T05:12:13.426Z,997.55
2019-01-25T05:13:13.440Z,997.59
2019-01-25T05:14:13.447Z,997.64
2019-01-25T05:15:13.458Z,997.67
2019-01-25T05:16:13.477Z,997.69
2019-01-25T05:17:13.491Z,997.68
2019-01-25T05:18:13.505Z,997.69
2019-01-25T05:19:13.518Z,997.67
2019-01-25T05:20:13.527Z,997.66
2019-01-25T05:21:13.542Z,997.67
2019-01-25T05:22:13.555Z,997.64
2019-01-25T05:23:13.576Z,997.71
2019-01-25T05:24:13.585Z,997.68
2019-01-25T05:25:13.597Z,997.66
2019-01-25T05:26:13.612Z,997.69
2019-01-25T05:27:13.625Z,997.71
2019-01-25T05:28:13.638Z,997.72
2019-01-25T05:29:13.652Z,997.73
2019-01-25T05:30:13.663Z,997.8
2019-01-25T05:31:13.682Z,997.82
2019-01-25T05:32:13.693Z,997.84
2019-01-25T05:33:13.705Z,997.84
2019-01-25T05:34:13.722Z,997.84
2019-01-25T05:35:13.732Z,997.86
2019-01-25T05:36:13.749Z,997.88
2019-01-25T05:37:13.760Z,997.9
2019-01-25T05:38:13.773Z,997.93
2019-01-25T05:39:13.806Z,997.99
2019-01-25T05:40:13.800Z,998.02
2019-01-25T05:41:13.814Z,998.02
2019-01-25T05:42:13.828Z,998.02
2019-01-25T05:43:13.843Z,998.07
2019-01-25T05:44:13.859Z,998.07
2019-01-25T05:45:13.870Z,998.13
2019-01-25T05:46:13.883Z,998.1
2019-01-25T05:47:13.898Z,998.14
2019-01-25T05:48:13.910Z,998.1
2019-01-25T05:49:13.925Z,998.12
2019-01-25T05:50:13.940Z,998.14
2019-01-25T05:51:13.954Z,998.18
2019-01-25T05:52:13.964Z,998.19
2019-01-25T05:53:13.984Z,998.18
2019-01-25T05:54:13.996Z,998.21
2019-01-25T05:55:14.005Z,998.2
2019-01-25T05:56:14.021Z,998.18
2019-01-25T05:57:14.033Z,998.13
2019-01-25T05:58:14.051Z,998.16
2019-01-25T05:59:14.060Z,998.21
2019-01-25T06:00:14.073Z,998.17
2019-01-25T06:01:14.087Z,998.14
2019-01-25T06:02:14.100Z,998.08
2019-01-25T06:03:14.114Z,998.08
2019-01-25T06:04:14.129Z,998
2019-01-25T06:05:14.142Z,998.01
2019-01-25T06:06:14.155Z,998.05
2019-01-25T06:07:14.173Z,998.04
2019-01-25T06:08:14.185Z,998.06
2019-01-25T06:09:14.199Z,998.02
2019-01-25T06:10:14.213Z,998.01
2019-01-25T06:11:14.228Z,998.05
2019-01-25T06:12:14.238Z,998.09
2019-01-25T06:13:14.251Z,998.06
2019-01-25T06:14:14.266Z,998.06
2019-01-25T06:15:14.278Z,998.05
2019-01-25T06:16:14.291Z,997.95
2019-01-25T06:17:14.306Z,997.95
2019-01-25T06:18:14.320Z,997.95
2019-01-25T06:19:14.334Z,997.91
2019-01-25T06:20:14.347Z,997.9
2019-01-25T06:21:14.363Z,997.92
2019-01-25T06:22:14.374Z,997.93
2019-01-25T06:23:14.388Z,997.92
2019-01-25T06:24:14.400Z,997.97
2019-01-25T06:25:14.417Z,997.98
2019-01-25T06:26:14.430Z,998.01
2019-01-25T06:27:14.447Z,998.05
2019-01-25T06:28:14.460Z,998.07
2019-01-25T06:29:14.470Z,998.12
2019-01-25T06:30:14.483Z,998.11
2019-01-25T06:31:14.496Z,998.07
2019-01-25T06:32:14.515Z,998.09
2019-01-25T06:33:14.528Z,998.15
2019-01-25T06:34:14.543Z,998.1
2019-01-25T06:35:14.551Z,998.12
2019-01-25T06:36:14.566Z,998.14
2019-01-25T06:37:14.579Z,998.17
2019-01-25T06:38:14.599Z,998.14
2019-01-25T06:39:14.606Z,998.18
2019-01-25T06:40:14.620Z,998.14
2019-01-25T06:41:14.634Z,998.15
2019-01-25T06:42:14.650Z,998.18
2019-01-25T06:43:14.661Z,998.17
2019-01-25T06:44:14.678Z,998.14
2019-01-25T06:45:14.689Z,998.22
2019-01-25T06:46:14.702Z,998.2
2019-01-25T06:47:14.716Z,998.22
2019-01-25T06:48:14.730Z,998.18
2019-01-25T06:49:14.763Z,998.22
2019-01-25T06:50:14.759Z,998.17
2019-01-25T06:51:14.769Z,998.2
2019-01-25T06:52:14.788Z,998.17
2019-01-25T06:53:14.796Z,998.18
2019-01-25T06:54:14.812Z,998.11
2019-01-25T06:55:14.826Z,998.14
2019-01-25T06:56:14.840Z,998.1
2019-01-25T06:57:14.853Z,998.07
2019-01-25T06:58:14.869Z,998.08
2019-01-25T06:59:14.884Z,998.08
2019-01-25T07:00:14.893Z,998.11
2019-01-25T07:01:14.907Z,998.08
2019-01-25T07:02:14.922Z,998.1
2019-01-25T07:03:14.935Z,998.12
2019-01-25T07:04:14.947Z,998.16
2019-01-25T07:05:14.964Z,998.18
2019-01-25T07:06:14.980Z,998.26
2019-01-25T07:07:14.988Z,998.26
2019-01-25T07:08:15.003Z,998.27
2019-01-25T07:09:15.020Z,998.28
2019-01-25T07:10:15.029Z,998.26
2019-01-25T07:11:15.043Z,998.25
2019-01-25T07:12:15.060Z,998.25
2019-01-25T07:13:15.068Z,998.23
2019-01-25T07:14:15.084Z,998.23
2019-01-25T07:15:15.101Z,998.18
2019-01-25T07:16:15.114Z,998.15
2019-01-25T07:17:15.129Z,998.13
2019-01-25T07:18:15.145Z,998.11
2019-01-25T07:19:15.152Z,998.16
2019-01-25T07:20:15.165Z,998.17
2019-01-25T07:21:15.179Z,998.19
2019-01-25T07:22:15.193Z,998.2
2019-01-25T07:23:15.206Z,998.22
2019-01-25T07:24:15.221Z,998.2
2019-01-25T07:25:15.232Z,998.24
2019-01-25T07:26:15.245Z,998.3
2019-01-25T07:27:15.262Z,998.33
2019-01-25T07:28:15.272Z,998.32
2019-01-25T07:29:15.293Z,998.29
2019-01-25T07:30:15.300Z,998.24
2019-01-25T07:31:15.315Z,998.24
2019-01-25T07:32:15.343Z,998.28
2019-01-25T07:33:15.346Z,998.27
2019-01-25T07:34:15.475Z,998.29
2019-01-25T07:35:15.369Z,998.3
2019-01-25T07:36:15.392Z,998.3
2019-01-25T07:37:15.398Z,998.31
2019-01-25T07:38:15.412Z,998.32
2019-01-25T07:39:15.434Z,998.26
2019-01-25T07:40:15.438Z,998.28
2019-01-25T07:41:15.461Z,998.26
2019-01-25T07:42:15.468Z,998.18
2019-01-25T07:43:15.482Z,998.17
2019-01-25T07:44:15.497Z,998.17
2019-01-25T07:45:15.545Z,998.1
2019-01-25T07:46:15.590Z,998.1
2019-01-25T07:47:15.563Z,998.11
2019-01-25T07:48:15.552Z,998.17
2019-01-25T07:49:15.571Z,998.17
2019-01-25T07:50:15.573Z,998.23
2019-01-25T07:51:15.587Z,998.24
2019-01-25T07:52:15.609Z,998.24
2019-01-25T07:53:15.613Z,998.23
2019-01-25T07:54:15.649Z,998.22
2019-01-25T07:55:15.661Z,998.19
2019-01-25T07:56:15.657Z,998.21
2019-01-25T07:57:15.669Z,998.21
2019-01-25T07:58:15.685Z,998.22
2019-01-25T07:59:15.706Z,998.26
2019-01-25T08:00:15.710Z,998.29
2019-01-25T08:01:15.726Z,998.29
2019-01-25T08:02:15.741Z,998.31
2019-01-25T08:03:15.762Z,998.25
2019-01-25T08:04:15.779Z,998.26
2019-01-25T08:05:15.825Z,998.29
2019-01-25T08:06:15.791Z,998.31
2019-01-25T08:07:15.804Z,998.35
2019-01-25T08:08:15.817Z,998.34
2019-01-25T08:09:15.831Z,998.33
2019-01-25T08:10:15.863Z,998.32
2019-01-25T08:11:15.869Z,998.37
2019-01-25T08:12:15.877Z,998.41
2019-01-25T08:13:15.885Z,998.37
2019-01-25T08:14:15.909Z,998.42
2019-01-25T08:15:15.946Z,998.41
2019-01-25T08:16:15.926Z,998.46
2019-01-25T08:17:15.963Z,998.47
2019-01-25T08:18:15.952Z,998.5
2019-01-25T08:19:15.973Z,998.51
2019-01-25T08:20:16.005Z,998.49
2019-01-25T08:21:16.014Z,998.5
2019-01-25T08:22:16.053Z,998.48
2019-01-25T08:23:16.021Z,998.48
2019-01-25T08:24:16.034Z,998.5
2019-01-25T08:25:16.048Z,998.51
2019-01-25T08:26:16.077Z,998.51
2019-01-25T08:27:16.078Z,998.56
2019-01-25T08:28:16.094Z,998.53
2019-01-25T08:29:16.114Z,998.48
2019-01-25T08:30:16.117Z,998.47
2019-01-25T08:31:16.130Z,998.46
2019-01-25T08:32:16.143Z,998.48
2019-01-25T08:33:16.165Z,998.51
2019-01-25T08:34:16.195Z,998.48
2019-01-25T08:35:16.185Z,998.51
2019-01-25T08:36:16.203Z,998.52
2019-01-25T08:37:16.222Z,998.53
2019-01-25T08:38:16.239Z,998.52
2019-01-25T08:39:16.242Z,998.52
2019-01-25T08:40:16.392Z,998.52
2019-01-25T08:41:16.267Z,998.5
2019-01-25T08:42:16.284Z,998.46
2019-01-25T08:43:16.299Z,998.46
2019-01-25T08:44:16.311Z,998.41
2019-01-25T08:45:16.322Z,998.41
2019-01-25T08:46:16.335Z,998.42
2019-01-25T08:47:16.406Z,998.43
2019-01-25T08:48:16.365Z,998.4
2019-01-25T08:49:16.405Z,998.41
2019-01-25T08:50:16.404Z,998.34
2019-01-25T08:51:16.414Z,998.33
2019-01-25T08:52:16.581Z,998.34
2019-01-25T08:53:16.437Z,998.35
2019-01-25T08:54:16.446Z,998.32
2019-01-25T08:55:16.500Z,998.38
2019-01-25T08:56:16.470Z,998.36
2019-01-25T08:57:16.483Z,998.36
2019-01-25T08:58:16.498Z,998.39
2019-01-25T08:59:16.564Z,998.44
2019-01-25T09:00:16.529Z,998.47
2019-01-25T09:01:16.537Z,998.49
2019-01-25T09:02:16.551Z,998.51
2019-01-25T09:03:16.566Z,998.51
2019-01-25T09:04:16.578Z,998.45
2019-01-25T09:05:16.597Z,998.48
2019-01-25T09:06:16.655Z,998.44
2019-01-25T09:07:16.622Z,998.42
2019-01-25T09:08:16.634Z,998.4
2019-01-25T09:09:16.648Z,998.42
2019-01-25T09:10:16.660Z,998.38
2019-01-25T09:11:16.675Z,998.4
2019-01-25T09:12:23.191Z,998.47
2019-01-25T09:13:16.707Z,998.43
2019-01-25T09:14:16.719Z,998.48
2019-01-25T09:15:16.733Z,998.53
2019-01-25T09:16:16.742Z,998.52
2019-01-25T09:17:16.760Z,998.61
2019-01-25T09:18:16.768Z,998.62
2019-01-25T09:19:16.784Z,998.61
2019-01-25T09:20:16.796Z,998.61
2019-01-25T09:21:16.810Z,998.61
2019-01-25T09:22:16.823Z,998.61
2019-01-25T09:23:16.837Z,998.55
2019-01-25T09:24:16.851Z,998.54
2019-01-25T09:25:16.872Z,998.58
2019-01-25T09:26:16.879Z,998.56
2019-01-25T09:27:16.891Z,998.59
2019-01-25T09:28:16.908Z,998.58
2019-01-25T09:29:16.920Z,998.57
2019-01-25T09:30:16.952Z,998.51
2019-01-25T09:31:16.946Z,998.53
2019-01-25T09:32:16.960Z,998.46
2019-01-25T09:33:16.974Z,998.5
2019-01-25T09:34:16.987Z,998.41
2019-01-25T09:35:17.001Z,998.43
2019-01-25T09:36:17.315Z,998.45
2019-01-25T09:37:17.028Z,998.52
2019-01-25T09:38:17.041Z,998.49
2019-01-25T09:39:17.062Z,998.48
2019-01-25T09:40:17.077Z,998.48
2019-01-25T09:41:17.087Z,998.49
2019-01-25T09:42:17.097Z,998.51
2019-01-25T09:43:17.109Z,998.48
2019-01-25T09:44:17.124Z,998.51
2019-01-25T09:45:17.137Z,998.5
2019-01-25T09:46:17.151Z,998.48
2019-01-25T09:47:17.168Z,998.47
2019-01-25T09:48:17.182Z,998.43
2019-01-25T09:49:17.193Z,998.39
2019-01-25T09:50:17.206Z,998.35
2019-01-25T09:51:17.220Z,998.38
2019-01-25T09:52:17.238Z,998.39
2019-01-25T09:53:17.247Z,998.41
2019-01-25T09:54:17.261Z,998.36
2019-01-25T09:55:17.275Z,998.36
2019-01-25T09:56:17.293Z,998.37
2019-01-25T09:57:17.301Z,998.4
2019-01-25T09:58:17.322Z,998.44
2019-01-25T09:59:17.330Z,998.44
2019-01-25T10:00:17.344Z,998.4
2019-01-25T10:01:17.357Z,998.36
2019-01-25T10:02:17.376Z,998.42
2019-01-25T10:03:17.388Z,998.41
2019-01-25T10:04:17.403Z,998.42
2019-01-25T10:05:17.414Z,998.4
2019-01-25T10:06:17.428Z,998.42
2019-01-25T10:07:17.442Z,998.37
2019-01-25T10:08:17.453Z,998.41
2019-01-25T10:09:17.467Z,998.39
2019-01-25T10:10:17.488Z,998.35
2019-01-25T10:11:17.501Z,998.34
2019-01-25T10:12:17.510Z,998.31
2019-01-25T10:13:17.526Z,998.32
2019-01-25T10:14:17.540Z,998.25
2019-01-25T10:15:17.556Z,998.26
2019-01-25T10:16:17.567Z,998.26
2019-01-25T10:17:17.582Z,998.24
2019-01-25T10:18:17.591Z,998.22
2019-01-25T10:19:17.609Z,998.24
2019-01-25T10:20:17.624Z,998.24
2019-01-25T10:21:17.637Z,998.26
2019-01-25T10:22:17.650Z,998.26
2019-01-25T10:23:17.662Z,998.29
2019-01-25T10:24:17.677Z,998.31
2019-01-25T10:25:17.689Z,998.29
2019-01-25T10:26:17.703Z,998.29
2019-01-25T10:27:17.721Z,998.29
2019-01-25T10:28:17.732Z,998.3
2019-01-25T10:29:17.743Z,998.26
2019-01-25T10:30:17.759Z,998.22
2019-01-25T10:31:17.772Z,998.17
2019-01-25T10:32:17.790Z,998.11
2019-01-25T10:33:17.802Z,998.12
2019-01-25T10:34:17.815Z,998.06
2019-01-25T10:35:17.836Z,998.07
2019-01-25T10:36:17.843Z,998.08
2019-01-25T10:37:17.855Z,998.01
2019-01-25T10:38:17.872Z,998.07
2019-01-25T10:39:17.882Z,997.97
2019-01-25T10:40:17.899Z,997.98
2019-01-25T10:41:17.909Z,997.95
2019-01-25T10:42:17.923Z,997.96
2019-01-25T10:43:17.938Z,997.96
2019-01-25T10:44:17.951Z,997.97
2019-01-25T10:45:17.964Z,997.99
2019-01-25T10:46:17.985Z,998.02
2019-01-25T10:47:17.992Z,998.01
2019-01-25T10:48:18.006Z,997.96
2019-01-25T10:49:18.020Z,997.99
2019-01-25T10:50:18.035Z,998
2019-01-25T10:51:18.048Z,997.98
2019-01-25T10:52:18.063Z,998.01
2019-01-25T10:53:18.079Z,998.05
2019-01-25T10:54:18.094Z,998.04
2019-01-25T10:55:18.106Z,997.99
2019-01-25T10:56:18.119Z,997.94
2019-01-25T10:57:18.131Z,997.97
2019-01-25T10:58:18.145Z,997.97
2019-01-25T10:59:18.162Z,997.94
2019-01-25T11:00:18.172Z,997.92
2019-01-25T11:01:18.188Z,997.94
2019-01-25T11:02:18.202Z,997.94
2019-01-25T11:03:18.215Z,997.95
2019-01-25T11:04:18.234Z,997.96
2019-01-25T11:05:18.243Z,997.97
2019-01-25T11:06:18.256Z,997.99
2019-01-25T11:07:18.274Z,997.91
2019-01-25T11:08:18.285Z,997.91
2019-01-25T11:09:18.299Z,997.91
2019-01-25T11:10:18.315Z,997.91
2019-01-25T11:11:18.327Z,997.87
2019-01-25T11:12:18.339Z,997.9
2019-01-25T11:13:18.358Z,997.92
2019-01-25T11:14:18.371Z,997.92
2019-01-25T11:15:18.386Z,997.88
2019-01-25T11:16:18.396Z,997.91
2019-01-25T11:17:18.410Z,997.91
2019-01-25T11:18:18.423Z,997.88
2019-01-25T11:19:18.437Z,997.9
2019-01-25T11:20:18.451Z,997.84
2019-01-25T11:21:18.469Z,997.81
2019-01-25T11:22:18.480Z,997.85
2019-01-25T11:23:18.493Z,997.91
2019-01-25T11:24:18.510Z,997.85
2019-01-25T11:25:18.522Z,997.84
2019-01-25T11:26:18.536Z,997.84
2019-01-25T11:27:18.550Z,997.79
2019-01-25T11:28:18.563Z,997.81
2019-01-25T11:29:18.581Z,997.82
2019-01-25T11:30:18.592Z,997.77
2019-01-25T11:31:18.608Z,997.79
2019-01-25T11:32:18.618Z,997.75
2019-01-25T11:33:18.634Z,997.71
2019-01-25T11:34:18.649Z,997.71
2019-01-25T11:35:18.663Z,997.71
2019-01-25T11:36:18.675Z,997.68
2019-01-25T11:37:18.688Z,997.69
2019-01-25T11:38:18.703Z,997.68
2019-01-25T11:39:18.722Z,997.7
2019-01-25T11:40:18.732Z,997.63
2019-01-25T11:41:18.750Z,997.64
2019-01-25T11:42:18.760Z,997.68
2019-01-25T11:43:18.781Z,997.68
2019-01-25T11:44:18.794Z,997.68
2019-01-25T11:45:18.805Z,997.68
2019-01-25T11:46:18.815Z,997.71
2019-01-25T11:47:18.831Z,997.71
2019-01-25T11:48:18.844Z,997.7
2019-01-25T11:49:18.858Z,997.67
2019-01-25T11:50:18.872Z,997.67
2019-01-25T11:51:19.870Z,997.69
2019-01-25T11:52:18.901Z,997.66
2019-01-25T11:53:18.915Z,997.68
2019-01-25T11:54:18.929Z,997.63
2019-01-25T11:55:18.941Z,997.57
2019-01-25T11:56:18.958Z,997.6
2019-01-25T11:57:18.970Z,997.68
2019-01-25T11:58:18.990Z,997.65
2019-01-25T11:59:18.997Z,997.61
2019-01-25T12:00:19.010Z,997.58
2019-01-25T12:01:19.029Z,997.63
2019-01-25T12:02:20.929Z,997.6
2019-01-25T12:03:19.056Z,997.57
2019-01-25T12:04:19.069Z,997.69
2019-01-25T12:05:19.087Z,997.67
2019-01-25T12:06:19.098Z,997.67
2019-01-25T12:07:19.112Z,997.69
2019-01-25T12:08:19.124Z,997.63
2019-01-25T12:09:19.138Z,997.6
2019-01-25T12:10:19.156Z,997.55
2019-01-25T12:11:19.166Z,997.56
2019-01-25T12:12:19.420Z,997.52
2019-01-25T12:13:19.193Z,997.56
2019-01-25T12:14:19.209Z,997.58
2019-01-25T12:15:19.222Z,997.6
2019-01-25T12:16:19.237Z,997.55
2019-01-25T12:17:19.250Z,997.6
2019-01-25T12:18:19.291Z,997.59
2019-01-25T12:19:19.282Z,997.53
2019-01-25T12:20:19.297Z,997.55
2019-01-25T12:21:20.634Z,997.56
2019-01-25T12:22:19.320Z,997.57
2019-01-25T12:23:19.338Z,997.55
2019-01-25T12:24:19.349Z,997.59
2019-01-25T12:25:19.368Z,997.54
2019-01-25T12:26:19.380Z,997.49
2019-01-25T12:27:19.391Z,997.55
2019-01-25T12:28:19.406Z,997.53
2019-01-25T12:29:19.425Z,997.57
2019-01-25T12:30:19.432Z,997.55
2019-01-25T12:31:19.450Z,997.54